Friday, April 25, 2014
02:29 UTC
  |  Log In   |  Register Free
Airport Search:

Ellington Field Airport
(KEFD)

FAA data valid effective April 3, 2014 until May 29, 2014 (unless otherwise noted).

 
 
 
 
 
 
 
 
 
 
 
 
 
 

Current Aviation Weather for Ellington Field Airport (KEFD)

The most recent METAR observation for KEFD was updated at: 0150 UTC
METAR Summary (Translated METAR)
KEFD
250150Z 16007KT 10SM SCT050 BKN250 23/20 A2989
KHOU
(6.7 nm NW from KEFD)
250153Z 18008KT 10SM FEW060 23/19 A2987 RMK AO2 SLP118 T02280194
TAF Summary (Translated TAF)
KEFD
2420/2602 19009KT 9999 BKN021 BKN100 QNH2980INS BECMG 2502/2503 18006KT 8000 BR OVC010 QNH2989INS BECMG 2514/2515 06006KT 9999 NSW BKN025 QNH2998INS BECMG 2517/2518 08009KT 9999 SKC QNH2995INS TX31/2421Z TN20/2602Z
KHOU
(6.7 nm NW from KEFD)
242101Z 2421/2518 20010KT P6SM FEW040 BKN250 FM250200 18005KT P6SM BKN040 FM250900 32003KT P6SM SCT015 SCT250 FM251500 05007KT P6SM SCT025
  Airport Weather Conditions for KEFD

 Current Weather at EFD
73° F
Mostly Cloudy
South winds at 8.1 mph
EFD NOAA Radar

Pressure: 29.89 in
Humidity: 83%
Wind: South at 8.1 MPH (7 KT)
Dew Point: 68.0°F
Visibility: 10.00 mi


Airport Weather Forecast for KEFD

Translated METAR and TAF for KEFD
Translated METAR for KEFD (0229 UTC 25 April 2014)
found at http://aviationweather.gov/adds/metars/
 
METAR text: KEFD 250150Z 16007KT 10SM SCT050 BKN250 23/20 A2989
Conditions at: KEFD (HOUSTON/ELLINGTO, TX, US) observed 0150 UTC 25 April 2014
Temperature: 23.0°C (73°F)
Dewpoint: 20.0°C (68°F) [RH = 83%]
Pressure (altimeter): 29.89 inches Hg (1012.3 mb)
Winds: from the SSE (160 degrees) at 8 MPH (7 knots; 3.6 m/s)
Visibility: 10 or more miles (16+ km)
Ceiling: 25000 feet AGL
Clouds: scattered clouds at 5000 feet AGL
broken clouds at 25000 feet AGL
Weather: no significant weather observed at this time
Translated TAF for KEFD
Forecast for: KEFD (HOUSTON/ELLINGTO, TX, US)
TAF Text: TAF KEFD 2420/2602 19009KT 9999 BKN021 BKN100 QNH2980INS
Forecast period: 2000 UTC 24 April 2014 to 0200 UTC 25 April 2014
Forecast type: FROM: standard forecast or significant change
Winds: from the S (190 degrees) at 10 MPH (9 knots; 4.7 m/s)
Visibility: 6 or more miles (10+ km)
Ceiling: 2100 feet AGL
Clouds: broken clouds at 2100 feet AGL
broken clouds at 10000 feet AGL
Weather: no significant weather forecast for this period
TAF Text: BECMG 2502/2503 18006KT 8000 BR OVC010 QNH2989INS
Forecast period: 0200 to 1400 UTC 25 April 2014
Forecast type: BECOMING: Conditions expected to become as follows by 0300 UTC 25 April 2014
Winds: from the S (180 degrees) at 7 MPH (6 knots; 3.1 m/s)
Visibility: 5 miles (8 km)
Ceiling: 1000 feet AGL
Clouds: overcast cloud deck at 1000 feet AGL
Weather: BR  (mist)
TAF Text: BECMG 2514/2515 06006KT 9999 NSW BKN025 QNH2998INS
Forecast period: 1400 to 1700 UTC 25 April 2014
Forecast type: BECOMING: Conditions expected to become as follows by 1500 UTC 25 April 2014
Winds: from the ENE (60 degrees) at 7 MPH (6 knots; 3.1 m/s)
Visibility: 6 or more miles (10+ km)
Ceiling: 2500 feet AGL
Clouds: broken clouds at 2500 feet AGL
Weather: NSW  (no significant weather)
TAF Text: BECMG 2517/2518 08009KT 9999 SKC QNH2995INS TX31/2421Z TN20/2602Z
Forecast period: 1700 UTC 25 April 2014 to 0200 UTC 26 April 2014
Forecast type: BECOMING: Conditions expected to become as follows by 1800 UTC 25 April 2014
Winds: from the E (80 degrees) at 10 MPH (9 knots; 4.7 m/s)
Visibility: 6 or more miles (10+ km)
Clouds: clear skies
Weather: NSW  (no significant weather)

Find All Airport Services Find A Hotel Find A Rental Car Find A Golf Course Find A Restaurant $100 Hamburger



FBO's on the Field
FBO Company Facility Photos Services Transportation Aviation Fuel Prices: Prices include tax
Catering Weather Repair Courtesy Rental Type 100LL JetA JetA+ MOGAS 8087
 
Southwest Airport Services

This FBO has not yet been rated
FS:Texaco
Last Updated: Mar-28
Login to update fuel prices
SS:
Contact Southwest Airport ServicesMore FBO Information
 
Add another FBO Facility Photos Catering Weather Repair Courtesy Rental Type 100LL JetA JetA+ MOGAS 8087
Services Transportation Aviation Fuel Prices: Prices include tax


GlobalAir.com Airport Resource Center model-print
model-print
model-print
model-print